sensor_id;sensor_type;location;lat;lon;timestamp;pressure;altitude;pressure_sealevel;temperature;humidity
74975;BME280;64061;50.836;19.138;2023-01-29T00:01:13;99454.66;;;20.11;52.10
74975;BME280;64061;50.836;19.138;2023-01-29T00:04:17;99441.25;;;20.09;52.07
74975;BME280;64061;50.836;19.138;2023-01-29T00:07:21;99444.53;;;20.11;52.07
74975;BME280;64061;50.836;19.138;2023-01-29T00:10:25;99456.63;;;20.10;51.77
74975;BME280;64061;50.836;19.138;2023-01-29T00:13:28;99466.44;;;20.11;51.80
74975;BME280;64061;50.836;19.138;2023-01-29T00:16:33;99462.09;;;20.10;51.53
74975;BME280;64061;50.836;19.138;2023-01-29T00:19:37;99452.75;;;20.11;51.58
74975;BME280;64061;50.836;19.138;2023-01-29T00:22:40;99456.63;;;20.10;51.33
74975;BME280;64061;50.836;19.138;2023-01-29T00:25:44;99457.69;;;20.09;51.37
74975;BME280;64061;50.836;19.138;2023-01-29T00:28:47;99467.84;;;20.09;51.21
74975;BME280;64061;50.836;19.138;2023-01-29T00:31:52;99465.09;;;20.09;50.94
74975;BME280;64061;50.836;19.138;2023-01-29T00:34:56;99470.56;;;20.09;51.25
74975;BME280;64061;50.836;19.138;2023-01-29T00:37:59;99466.19;;;20.08;50.97
74975;BME280;64061;50.836;19.138;2023-01-29T00:41:06;99460.13;;;20.06;50.84
74975;BME280;64061;50.836;19.138;2023-01-29T00:44:36;99459.06;;;20.07;50.65
74975;BME280;64061;50.836;19.138;2023-01-29T00:47:58;99462.88;;;20.06;50.56
74975;BME280;64061;50.836;19.138;2023-01-29T00:51:02;99457.41;;;20.06;50.49
74975;BME280;64061;50.836;19.138;2023-01-29T00:54:06;99453.00;;;20.05;50.58
74975;BME280;64061;50.836;19.138;2023-01-29T00:57:09;99456.56;;;20.05;50.38
74975;BME280;64061;50.836;19.138;2023-01-29T01:00:15;99459.56;;;20.04;50.44
74975;BME280;64061;50.836;19.138;2023-01-29T01:03:22;99463.41;;;20.03;50.40
74975;BME280;64061;50.836;19.138;2023-01-29T01:06:24;99456.56;;;20.05;50.42
74975;BME280;64061;50.836;19.138;2023-01-29T01:09:27;99441.50;;;20.03;50.38
74975;BME280;64061;50.836;19.138;2023-01-29T01:12:52;99445.06;;;20.03;50.11
74975;BME280;64061;50.836;19.138;2023-01-29T01:15:57;99439.56;;;20.03;50.25
74975;BME280;64061;50.836;19.138;2023-01-29T01:19:03;99423.41;;;20.02;50.15
74975;BME280;64061;50.836;19.138;2023-01-29T01:22:07;99436.00;;;20.03;50.24
74975;BME280;64061;50.836;19.138;2023-01-29T01:25:11;99423.41;;;20.02;50.07
74975;BME280;64061;50.836;19.138;2023-01-29T01:28:15;99427.78;;;20.03;50.04
74975;BME280;64061;50.836;19.138;2023-01-29T01:31:19;99420.66;;;20.02;49.87
74975;BME280;64061;50.836;19.138;2023-01-29T01:34:24;99420.94;;;20.00;49.83
74975;BME280;64061;50.836;19.138;2023-01-29T01:37:29;99431.63;;;20.02;49.88
74975;BME280;64061;50.836;19.138;2023-01-29T01:40:32;99431.06;;;20.00;49.84
74975;BME280;64061;50.836;19.138;2023-01-29T01:43:47;99433.22;;;19.98;49.46
74975;BME280;64061;50.836;19.138;2023-01-29T01:46:52;99437.63;;;19.99;49.67
74975;BME280;64061;50.836;19.138;2023-01-29T01:50:02;99423.41;;;19.97;49.80
74975;BME280;64061;50.836;19.138;2023-01-29T01:53:11;99422.28;;;19.98;49.63
74975;BME280;64061;50.836;19.138;2023-01-29T01:56:22;99419.00;;;19.96;49.46
74975;BME280;64061;50.836;19.138;2023-01-29T01:59:31;99411.63;;;19.96;49.29
74975;BME280;64061;50.836;19.138;2023-01-29T02:02:40;99411.63;;;19.96;49.40
74975;BME280;64061;50.836;19.138;2023-01-29T02:06:05;99407.22;;;19.95;49.51
74975;BME280;64061;50.836;19.138;2023-01-29T02:09:30;99405.59;;;19.94;49.20
74975;BME280;64061;50.836;19.138;2023-01-29T02:12:42;99411.31;;;19.92;49.18
74975;BME280;64061;50.836;19.138;2023-01-29T02:15:50;99429.41;;;19.93;49.11
74975;BME280;64061;50.836;19.138;2023-01-29T02:18:53;99414.06;;;19.92;49.09
74975;BME280;64061;50.836;19.138;2023-01-29T02:22:31;99409.09;;;19.89;48.65
74975;BME280;64061;50.836;19.138;2023-01-29T02:26:18;99403.63;;;19.89;48.96
74975;BME280;64061;50.836;19.138;2023-01-29T02:29:44;99413.75;;;19.89;49.00
74975;BME280;64061;50.836;19.138;2023-01-29T02:33:04;99418.41;;;19.88;49.00
74975;BME280;64061;50.836;19.138;2023-01-29T02:36:34;99424.97;;;19.87;48.87
74975;BME280;64061;50.836;19.138;2023-01-29T02:39:49;99422.22;;;19.87;49.07
74975;BME280;64061;50.836;19.138;2023-01-29T02:43:07;99426.88;;;19.87;48.93
74975;BME280;64061;50.836;19.138;2023-01-29T02:46:31;99431.53;;;19.86;48.99
74975;BME280;64061;50.836;19.138;2023-01-29T02:49:44;99430.72;;;19.86;48.97
74975;BME280;64061;50.836;19.138;2023-01-29T02:52:58;99426.88;;;19.87;48.89
74975;BME280;64061;50.836;19.138;2023-01-29T02:56:10;99437.84;;;19.87;49.03
74975;BME280;64061;50.836;19.138;2023-01-29T02:59:22;99422.22;;;19.87;48.79
74975;BME280;64061;50.836;19.138;2023-01-29T03:02:36;99426.06;;;19.86;48.78
74975;BME280;64061;50.836;19.138;2023-01-29T03:05:50;99431.53;;;19.86;48.78
74975;BME280;64061;50.836;19.138;2023-01-29T03:09:03;99432.38;;;19.87;48.80
74975;BME280;64061;50.836;19.138;2023-01-29T03:12:14;99423.88;;;19.88;48.56
74975;BME280;64061;50.836;19.138;2023-01-29T03:15:39;99420.31;;;19.88;48.61
74975;BME280;64061;50.836;19.138;2023-01-29T03:19:08;99425.53;;;19.89;48.62
74975;BME280;64061;50.836;19.138;2023-01-29T03:22:17;99411.28;;;19.87;48.41
74975;BME280;64061;50.836;19.138;2023-01-29T03:25:25;99405.53;;;19.89;48.55
74975;BME280;64061;50.836;19.138;2023-01-29T03:28:51;99405.53;;;19.89;48.43
74975;BME280;64061;50.836;19.138;2023-01-29T03:32:16;99396.50;;;19.88;48.42
74975;BME280;64061;50.836;19.138;2023-01-29T03:35:25;99397.03;;;19.85;48.67
74975;BME280;64061;50.836;19.138;2023-01-29T03:38:36;99403.06;;;19.87;48.44
74975;BME280;64061;50.836;19.138;2023-01-29T03:41:45;99397.59;;;19.87;48.38
74975;BME280;64061;50.836;19.138;2023-01-29T03:44:58;99396.50;;;19.88;48.52
74975;BME280;64061;50.836;19.138;2023-01-29T03:48:19;99391.84;;;19.89;48.79
74975;BME280;64061;50.836;19.138;2023-01-29T03:51:37;99382.81;;;19.88;48.29
74975;BME280;64061;50.836;19.138;2023-01-29T03:54:55;99374.59;;;19.88;48.72
74975;BME280;64061;50.836;19.138;2023-01-29T03:58:14;99362.00;;;19.87;48.28
74975;BME280;64061;50.836;19.138;2023-01-29T04:01:30;99354.59;;;19.88;48.44
74975;BME280;64061;50.836;19.138;2023-01-29T04:04:45;99358.16;;;19.88;48.46
74975;BME280;64061;50.836;19.138;2023-01-29T04:08:00;99351.03;;;19.87;48.54
74975;BME280;64061;50.836;19.138;2023-01-29T04:11:13;99363.09;;;19.86;48.32
74975;BME280;64061;50.836;19.138;2023-01-29T04:14:21;99354.88;;;19.86;47.54
74975;BME280;64061;50.836;19.138;2023-01-29T04:17:30;99354.03;;;19.86;48.31
74975;BME280;64061;50.836;19.138;2023-01-29T04:20:46;99351.31;;;19.86;48.36
74975;BME280;64061;50.836;19.138;2023-01-29T04:23:52;99348.56;;;19.86;48.31
74975;BME280;64061;50.836;19.138;2023-01-29T04:27:02;99345.84;;;19.86;48.30
74975;BME280;64061;50.836;19.138;2023-01-29T04:30:25;99337.88;;;19.84;48.24
74975;BME280;64061;50.836;19.138;2023-01-29T04:33:42;99337.88;;;19.84;48.11
74975;BME280;64061;50.836;19.138;2023-01-29T04:37:01;99342.84;;;19.82;48.27
74975;BME280;64061;50.836;19.138;2023-01-29T04:40:19;99345.31;;;19.84;47.99
74975;BME280;64061;50.836;19.138;2023-01-29T04:43:31;99353.53;;;19.84;47.92
74975;BME280;64061;50.836;19.138;2023-01-29T04:46:45;99341.75;;;19.83;47.74
74975;BME280;64061;50.836;19.138;2023-01-29T04:49:58;99342.84;;;19.82;47.89
74975;BME280;64061;50.836;19.138;2023-01-29T04:53:17;99337.63;;;19.81;47.84
74975;BME280;64061;50.836;19.138;2023-01-29T04:56:34;99334.06;;;19.80;47.97
74975;BME280;64061;50.836;19.138;2023-01-29T04:59:50;99335.69;;;19.81;47.65
74975;BME280;64061;50.836;19.138;2023-01-29T05:03:00;99330.22;;;19.81;47.85
74975;BME280;64061;50.836;19.138;2023-01-29T05:06:07;99334.06;;;19.80;47.72
74975;BME280;64061;50.836;19.138;2023-01-29T05:09:13;99326.94;;;19.79;47.71
74975;BME280;64061;50.836;19.138;2023-01-29T05:12:21;99329.66;;;19.79;47.77
74975;BME280;64061;50.836;19.138;2023-01-29T05:15:34;99328.56;;;19.80;47.72
74975;BME280;64061;50.836;19.138;2023-01-29T05:18:40;99323.09;;;19.80;47.49
74975;BME280;64061;50.836;19.138;2023-01-29T05:21:46;99338.72;;;19.80;47.67
74975;BME280;64061;50.836;19.138;2023-01-29T05:24:51;99312.97;;;19.81;47.42
74975;BME280;64061;50.836;19.138;2023-01-29T05:27:56;99323.09;;;19.80;47.59
74975;BME280;64061;50.836;19.138;2023-01-29T05:31:05;99327.75;;;19.80;47.64
74975;BME280;64061;50.836;19.138;2023-01-29T05:34:10;99315.97;;;19.79;47.75
74975;BME280;64061;50.836;19.138;2023-01-29T05:37:13;99322.28;;;19.80;47.51
74975;BME280;64061;50.836;19.138;2023-01-29T05:40:17;99324.19;;;19.79;47.52
74975;BME280;64061;50.836;19.138;2023-01-29T05:43:24;99322.53;;;19.78;47.53
74975;BME280;64061;50.836;19.138;2023-01-29T05:46:28;99331.59;;;19.79;47.74
74975;BME280;64061;50.836;19.138;2023-01-29T05:49:31;99315.97;;;19.79;47.43
74975;BME280;64061;50.836;19.138;2023-01-29T05:52:35;99325.28;;;19.78;47.57
74975;BME280;64061;50.836;19.138;2023-01-29T05:55:43;99338.97;;;19.78;47.63
74975;BME280;64061;50.836;19.138;2023-01-29T05:58:48;99333.50;;;19.78;47.58
74975;BME280;64061;50.836;19.138;2023-01-29T06:01:52;99347.19;;;19.78;47.71
74975;BME280;64061;50.836;19.138;2023-01-29T06:04:56;99358.13;;;19.78;47.61
74975;BME280;64061;50.836;19.138;2023-01-29T06:08:00;99344.44;;;19.78;47.80
74975;BME280;64061;50.836;19.138;2023-01-29T06:11:06;99346.63;;;19.76;47.46
74975;BME280;64061;50.836;19.138;2023-01-29T06:14:13;99351.00;;;19.77;47.28
74975;BME280;64061;50.836;19.138;2023-01-29T06:17:16;99345.81;;;19.81;47.64
74975;BME280;64061;50.836;19.138;2023-01-29T06:20:20;99335.16;;;19.84;47.64
74975;BME280;64061;50.836;19.138;2023-01-29T06:23:24;99333.78;;;19.87;47.87
74975;BME280;64061;50.836;19.138;2023-01-29T06:26:28;99335.16;;;19.84;47.89
74975;BME280;64061;50.836;19.138;2023-01-29T06:29:33;99334.06;;;19.85;48.13
74975;BME280;64061;50.836;19.138;2023-01-29T06:32:36;99348.31;;;19.87;47.99
74975;BME280;64061;50.836;19.138;2023-01-29T06:35:40;99334.09;;;19.90;48.33
74975;BME280;64061;50.836;19.138;2023-01-29T06:38:43;99339.03;;;19.93;48.41
74975;BME280;64061;50.836;19.138;2023-01-29T06:41:48;99338.50;;;19.97;48.45
74975;BME280;64061;50.836;19.138;2023-01-29T06:44:53;99344.25;;;20.00;48.57
74975;BME280;64061;50.836;19.138;2023-01-29T06:47:56;99337.16;;;20.04;48.49
74975;BME280;64061;50.836;19.138;2023-01-29T06:51:03;99346.19;;;20.05;48.55
74975;BME280;64061;50.836;19.138;2023-01-29T06:54:08;99338.00;;;20.10;48.72
74975;BME280;64061;50.836;19.138;2023-01-29T06:57:12;99336.63;;;20.12;48.66
74975;BME280;64061;50.836;19.138;2023-01-29T07:00:17;99342.41;;;20.16;48.64
74975;BME280;64061;50.836;19.138;2023-01-29T07:03:21;99338.56;;;20.17;48.62
74975;BME280;64061;50.836;19.138;2023-01-29T07:06:28;99347.34;;;20.19;48.73
74975;BME280;64061;50.836;19.138;2023-01-29T07:09:32;99345.16;;;20.21;48.88
74975;BME280;64061;50.836;19.138;2023-01-29T07:12:36;99350.63;;;20.21;49.44
74975;BME280;64061;50.836;19.138;2023-01-29T07:15:41;99358.59;;;20.22;49.65
74975;BME280;64061;50.836;19.138;2023-01-29T07:18:45;99357.75;;;20.22;49.70
74975;BME280;64061;50.836;19.138;2023-01-29T07:21:48;99360.25;;;20.23;49.94
74975;BME280;64061;50.836;19.138;2023-01-29T07:24:52;99359.94;;;20.25;49.71
74975;BME280;64061;50.836;19.138;2023-01-29T07:27:58;99361.03;;;20.24;49.67
74975;BME280;64061;50.836;19.138;2023-01-29T07:31:04;99376.38;;;20.25;50.10
74975;BME280;64061;50.836;19.138;2023-01-29T07:34:08;99379.13;;;20.25;49.23
74975;BME280;64061;50.836;19.138;2023-01-29T07:37:11;99382.41;;;20.27;49.07
74975;BME280;64061;50.836;19.138;2023-01-29T07:40:15;99375.28;;;20.26;48.76
74975;BME280;64061;50.836;19.138;2023-01-29T07:43:19;99385.44;;;20.25;48.67
74975;BME280;64061;50.836;19.138;2023-01-29T07:46:26;99376.94;;;20.27;48.48
74975;BME280;64061;50.836;19.138;2023-01-29T07:49:30;99376.94;;;20.27;48.35
74975;BME280;64061;50.836;19.138;2023-01-29T07:52:33;99370.91;;;20.25;48.25
74975;BME280;64061;50.836;19.138;2023-01-29T07:55:37;99371.47;;;20.27;48.03
74975;BME280;64061;50.836;19.138;2023-01-29T07:58:40;99368.16;;;20.25;47.83
74975;BME280;64061;50.836;19.138;2023-01-29T08:01:45;99375.28;;;20.26;47.76
74975;BME280;64061;50.836;19.138;2023-01-29T08:04:48;99394.47;;;20.26;47.61
74975;BME280;64061;50.836;19.138;2023-01-29T08:07:52;99403.50;;;20.26;47.29
74975;BME280;64061;50.836;19.138;2023-01-29T08:11:07;99404.34;;;20.27;47.41
74975;BME280;64061;50.836;19.138;2023-01-29T08:14:11;99405.16;;;20.27;47.79
74975;BME280;64061;50.836;19.138;2023-01-29T08:17:16;99393.38;;;20.27;47.55
74975;BME280;64061;50.836;19.138;2023-01-29T08:20:20;99408.47;;;20.29;48.15
74975;BME280;64061;50.836;19.138;2023-01-29T08:23:24;99392.84;;;20.30;48.33
74975;BME280;64061;50.836;19.138;2023-01-29T08:26:27;99387.38;;;20.30;48.26
74975;BME280;64061;50.836;19.138;2023-01-29T08:29:31;99396.97;;;20.33;48.18
74975;BME280;64061;50.836;19.138;2023-01-29T08:32:36;99390.66;;;20.32;48.08
74975;BME280;64061;50.836;19.138;2023-01-29T08:35:39;99390.41;;;20.34;48.08
74975;BME280;64061;50.836;19.138;2023-01-29T08:38:43;99372.63;;;20.36;48.33
74975;BME280;64061;50.836;19.138;2023-01-29T08:41:46;99362.50;;;20.37;48.06
74975;BME280;64061;50.836;19.138;2023-01-29T08:44:50;99368.81;;;20.37;47.89
74975;BME280;64061;50.836;19.138;2023-01-29T08:47:55;99367.69;;;20.38;48.14
74975;BME280;64061;50.836;19.138;2023-01-29T08:51:00;99369.88;;;20.41;47.91
74975;BME280;64061;50.836;19.138;2023-01-29T08:54:05;99366.63;;;20.44;47.95
74975;BME280;64061;50.836;19.138;2023-01-29T08:57:08;99371.03;;;20.50;47.78
74975;BME280;64061;50.836;19.138;2023-01-29T09:00:13;99347.44;;;20.54;47.74
74975;BME280;64061;50.836;19.138;2023-01-29T09:03:19;99349.38;;;20.59;47.75
74975;BME280;64061;50.836;19.138;2023-01-29T09:06:22;99353.75;;;20.65;47.73
74975;BME280;64061;50.836;19.138;2023-01-29T09:09:26;99352.94;;;20.70;47.96
74975;BME280;64061;50.836;19.138;2023-01-29T09:12:30;99357.91;;;20.73;47.84
74975;BME280;64061;50.836;19.138;2023-01-29T09:15:33;99360.63;;;20.78;47.57
74975;BME280;64061;50.836;19.138;2023-01-29T09:18:38;99343.63;;;20.81;47.69
74975;BME280;64061;50.836;19.138;2023-01-29T09:21:41;99352.97;;;20.85;47.51
74975;BME280;64061;50.836;19.138;2023-01-29T09:24:45;99351.34;;;20.89;47.26
74975;BME280;64061;50.836;19.138;2023-01-29T09:27:48;99351.59;;;20.92;47.39
74975;BME280;64061;50.836;19.138;2023-01-29T09:30:51;99352.69;;;20.96;46.96
74975;BME280;64061;50.836;19.138;2023-01-29T09:33:57;99347.50;;;21.00;46.90
74975;BME280;64061;50.836;19.138;2023-01-29T09:37:00;99348.56;;;21.04;46.53
74975;BME280;64061;50.836;19.138;2023-01-29T09:40:13;99326.06;;;21.07;46.86
74975;BME280;64061;50.836;19.138;2023-01-29T09:43:36;99324.72;;;21.10;46.44
74975;BME280;64061;50.836;19.138;2023-01-29T09:46:46;99322.25;;;21.13;46.24
74975;BME280;64061;50.836;19.138;2023-01-29T09:49:56;99321.97;;;21.15;45.98
74975;BME280;64061;50.836;19.138;2023-01-29T09:53:11;99316.22;;;21.16;46.14
74975;BME280;64061;50.836;19.138;2023-01-29T09:56:21;99304.69;;;21.19;45.62
74975;BME280;64061;50.836;19.138;2023-01-29T09:59:30;99293.44;;;21.21;45.75
74975;BME280;64061;50.836;19.138;2023-01-29T10:02:45;99294.78;;;21.18;45.47
74975;BME280;64061;50.836;19.138;2023-01-29T10:06:22;99298.38;;;21.24;46.32
74975;BME280;64061;50.836;19.138;2023-01-29T10:09:59;99285.47;;;21.24;45.44
74975;BME280;64061;50.836;19.138;2023-01-29T10:13:18;99276.97;;;21.26;45.70
74975;BME280;64061;50.836;19.138;2023-01-29T10:16:38;99280.81;;;21.25;45.66
74975;BME280;64061;50.836;19.138;2023-01-29T10:20:04;99264.91;;;21.27;45.70
74975;BME280;64061;50.836;19.138;2023-01-29T10:23:26;99269.84;;;21.30;45.77
74975;BME280;64061;50.836;19.138;2023-01-29T10:26:35;99265.97;;;21.31;45.74
74975;BME280;64061;50.836;19.138;2023-01-29T10:29:42;99245.41;;;21.28;45.60
74975;BME280;64061;50.836;19.138;2023-01-29T10:32:48;99249.22;;;21.32;45.82
74975;BME280;64061;50.836;19.138;2023-01-29T10:35:55;99233.84;;;21.31;45.74
74975;BME280;64061;50.836;19.138;2023-01-29T10:39:13;99211.09;;;21.31;45.88
74975;BME280;64061;50.836;19.138;2023-01-29T10:42:26;99209.16;;;21.31;45.28
74975;BME280;64061;50.836;19.138;2023-01-29T10:45:41;99207.50;;;21.36;45.48
74975;BME280;64061;50.836;19.138;2023-01-29T10:49:03;99203.66;;;21.37;45.08
74975;BME280;64061;50.836;19.138;2023-01-29T10:52:32;99196.25;;;21.37;44.99
74975;BME280;64061;50.836;19.138;2023-01-29T10:55:57;99202.84;;;21.41;44.78
74975;BME280;64061;50.836;19.138;2023-01-29T10:59:38;99203.38;;;21.43;44.74
74975;BME280;64061;50.836;19.138;2023-01-29T11:02:54;99197.59;;;21.45;44.63
74975;BME280;64061;50.836;19.138;2023-01-29T11:06:06;99198.13;;;21.47;44.45
74975;BME280;64061;50.836;19.138;2023-01-29T11:09:25;99186.03;;;21.48;44.18
74975;BME280;64061;50.836;19.138;2023-01-29T11:12:36;99200.84;;;21.52;44.73
74975;BME280;64061;50.836;19.138;2023-01-29T11:15:41;99201.94;;;21.56;44.08
74975;BME280;64061;50.836;19.138;2023-01-29T11:18:53;99209.88;;;21.57;43.81
74975;BME280;64061;50.836;19.138;2023-01-29T11:21:59;99203.28;;;21.63;43.73
74975;BME280;64061;50.836;19.138;2023-01-29T11:25:15;99200.25;;;21.65;43.71
74975;BME280;64061;50.836;19.138;2023-01-29T11:28:37;99205.72;;;21.65;43.35
74975;BME280;64061;50.836;19.138;2023-01-29T11:31:41;99201.59;;;21.67;43.38
74975;BME280;64061;50.836;19.138;2023-01-29T11:34:59;99185.69;;;21.64;44.14
74975;BME280;64061;50.836;19.138;2023-01-29T11:38:15;99186.78;;;21.63;45.25
74975;BME280;64061;50.836;19.138;2023-01-29T11:41:21;99187.91;;;21.62;45.41
74975;BME280;64061;50.836;19.138;2023-01-29T11:44:30;99166.19;;;21.66;45.82
74975;BME280;64061;50.836;19.138;2023-01-29T11:47:34;99180.19;;;21.69;46.15
74975;BME280;64061;50.836;19.138;2023-01-29T11:50:38;99162.84;;;21.74;46.44
74975;BME280;64061;50.836;19.138;2023-01-29T11:53:43;99152.41;;;21.76;46.74
74975;BME280;64061;50.836;19.138;2023-01-29T11:56:52;99145.50;;;21.79;46.89
74975;BME280;64061;50.836;19.138;2023-01-29T11:59:59;99146.59;;;21.83;46.33
74975;BME280;64061;50.836;19.138;2023-01-29T12:03:12;99152.31;;;21.86;46.03
74975;BME280;64061;50.836;19.138;2023-01-29T12:06:32;99149.28;;;21.88;45.70
74975;BME280;64061;50.836;19.138;2023-01-29T12:09:38;99150.94;;;21.89;45.80
74975;BME280;64061;50.836;19.138;2023-01-29T12:12:43;99134.16;;;21.90;45.71
74975;BME280;64061;50.836;19.138;2023-01-29T12:15:48;99129.50;;;21.91;45.60
74975;BME280;64061;50.836;19.138;2023-01-29T12:19:15;99135.81;;;21.91;45.43
74975;BME280;64061;50.836;19.138;2023-01-29T12:22:37;99120.44;;;21.90;45.28
74975;BME280;64061;50.836;19.138;2023-01-29T12:25:57;99116.34;;;21.88;45.29
74975;BME280;64061;50.836;19.138;2023-01-29T12:29:20;99107.56;;;21.86;45.18
74975;BME280;64061;50.836;19.138;2023-01-29T12:32:38;99103.75;;;21.82;45.40
74975;BME280;64061;50.836;19.138;2023-01-29T12:35:52;99099.66;;;21.79;45.56
74975;BME280;64061;50.836;19.138;2023-01-29T12:39:04;99099.38;;;21.81;46.55
74975;BME280;64061;50.836;19.138;2023-01-29T12:42:15;99100.75;;;21.78;47.22
74975;BME280;64061;50.836;19.138;2023-01-29T12:45:23;99090.34;;;21.75;46.88
74975;BME280;64061;50.836;19.138;2023-01-29T12:48:32;99091.72;;;21.73;46.61
74975;BME280;64061;50.836;19.138;2023-01-29T12:51:45;99095.88;;;21.70;46.61
74975;BME280;64061;50.836;19.138;2023-01-29T12:55:00;99091.78;;;21.67;46.76
74975;BME280;64061;50.836;19.138;2023-01-29T12:58:13;99080.53;;;21.64;46.82
74975;BME280;64061;50.836;19.138;2023-01-29T13:01:27;99075.31;;;21.62;46.66
74975;BME280;64061;50.836;19.138;2023-01-29T13:04:40;99072.03;;;21.60;46.62
74975;BME280;64061;50.836;19.138;2023-01-29T13:07:55;99066.84;;;21.59;46.59
74975;BME280;64061;50.836;19.138;2023-01-29T13:11:09;99045.97;;;21.58;46.47
74975;BME280;64061;50.836;19.138;2023-01-29T13:14:25;99056.13;;;21.57;46.45
74975;BME280;64061;50.836;19.138;2023-01-29T13:17:41;99053.69;;;21.56;46.73
74975;BME280;64061;50.836;19.138;2023-01-29T13:20:51;99052.34;;;21.53;47.13
74975;BME280;64061;50.836;19.138;2023-01-29T13:24:01;99048.22;;;21.56;46.89
74975;BME280;64061;50.836;19.138;2023-01-29T13:27:20;99042.72;;;21.56;46.67
74975;BME280;64061;50.836;19.138;2023-01-29T13:30:32;99039.66;;;21.57;46.57
74975;BME280;64061;50.836;19.138;2023-01-29T13:33:41;99036.06;;;21.62;46.45
74975;BME280;64061;50.836;19.138;2023-01-29T13:36:49;99032.47;;;21.66;46.39
74975;BME280;64061;50.836;19.138;2023-01-29T13:39:59;99043.13;;;21.73;46.37
74975;BME280;64061;50.836;19.138;2023-01-29T13:43:04;99049.69;;;21.77;46.33
74975;BME280;64061;50.836;19.138;2023-01-29T13:46:13;99041.41;;;21.82;46.43
74975;BME280;64061;50.836;19.138;2023-01-29T13:49:31;99046.31;;;21.85;46.17
74975;BME280;64061;50.836;19.138;2023-01-29T13:52:43;99040.81;;;21.85;46.51
74975;BME280;64061;50.836;19.138;2023-01-29T13:55:50;99040.81;;;21.85;46.58
74975;BME280;64061;50.836;19.138;2023-01-29T13:58:55;99035.91;;;21.82;46.56
74975;BME280;64061;50.836;19.138;2023-01-29T14:02:02;99027.44;;;21.79;46.33
74975;BME280;64061;50.836;19.138;2023-01-29T14:05:40;99024.44;;;21.75;46.50
74975;BME280;64061;50.836;19.138;2023-01-29T14:08:46;99032.13;;;21.73;46.27
74975;BME280;64061;50.836;19.138;2023-01-29T14:11:49;99032.72;;;21.70;46.89
74975;BME280;64061;50.836;19.138;2023-01-29T14:15:04;99022.88;;;21.64;46.82
74975;BME280;64061;50.836;19.138;2023-01-29T14:18:22;99014.09;;;21.62;46.77
74975;BME280;64061;50.836;19.138;2023-01-29T14:21:29;99009.47;;;21.57;46.73
74975;BME280;64061;50.836;19.138;2023-01-29T14:24:41;99022.16;;;21.53;46.99
74975;BME280;64061;50.836;19.138;2023-01-29T14:27:46;99018.03;;;21.51;47.03
74975;BME280;64061;50.836;19.138;2023-01-29T14:30:51;99018.88;;;21.51;47.11
74975;BME280;64061;50.836;19.138;2023-01-29T14:33:59;99024.06;;;21.53;47.83
74975;BME280;64061;50.836;19.138;2023-01-29T14:37:19;99030.91;;;21.55;48.94
74975;BME280;64061;50.836;19.138;2023-01-29T14:40:29;99028.69;;;21.57;50.55
74975;BME280;64061;50.836;19.138;2023-01-29T14:43:36;99022.91;;;21.59;51.91
74975;BME280;64061;50.836;19.138;2023-01-29T14:46:42;99019.34;;;21.58;53.12
74975;BME280;64061;50.836;19.138;2023-01-29T14:49:51;99016.91;;;21.57;54.27
74975;BME280;64061;50.836;19.138;2023-01-29T14:52:59;99030.31;;;21.58;54.91
74975;BME280;64061;50.836;19.138;2023-01-29T14:56:13;99024.00;;;21.58;55.53
74975;BME280;64061;50.836;19.138;2023-01-29T14:59:21;99006.97;;;21.61;56.53
74975;BME280;64061;50.836;19.138;2023-01-29T15:02:37;99018.78;;;21.61;57.99
74975;BME280;64061;50.836;19.138;2023-01-29T15:05:44;99009.16;;;21.64;59.82
74975;BME280;64061;50.836;19.138;2023-01-29T15:08:55;99003.94;;;21.62;60.29
74975;BME280;64061;50.836;19.138;2023-01-29T15:12:15;99008.03;;;21.65;60.90
74975;BME280;64061;50.836;19.138;2023-01-29T15:15:32;99004.19;;;21.66;62.04
74975;BME280;64061;50.836;19.138;2023-01-29T15:18:41;99010.22;;;21.68;62.41
74975;BME280;64061;50.836;19.138;2023-01-29T15:22:05;99003.38;;;21.65;62.20
74975;BME280;64061;50.836;19.138;2023-01-29T15:25:13;98995.69;;;21.67;61.29
74975;BME280;64061;50.836;19.138;2023-01-29T15:28:23;98986.34;;;21.68;60.84
74975;BME280;64061;50.836;19.138;2023-01-29T15:31:28;98979.97;;;21.73;58.78
74975;BME280;64061;50.836;19.138;2023-01-29T15:34:32;98988.44;;;21.77;57.65
74975;BME280;64061;50.836;19.138;2023-01-29T15:37:36;98989.28;;;21.77;56.68
74975;BME280;64061;50.836;19.138;2023-01-29T15:40:41;98975.00;;;21.75;56.38
74975;BME280;64061;50.836;19.138;2023-01-29T15:43:56;98986.81;;;21.76;56.17
74975;BME280;64061;50.836;19.138;2023-01-29T15:47:00;98981.88;;;21.73;55.58
74975;BME280;64061;50.836;19.138;2023-01-29T15:50:05;98976.69;;;21.71;55.49
74975;BME280;64061;50.836;19.138;2023-01-29T15:53:16;98974.28;;;21.64;54.98
74975;BME280;64061;50.836;19.138;2023-01-29T15:56:25;98979.78;;;21.64;55.22
74975;BME280;64061;50.836;19.138;2023-01-29T15:59:38;98978.41;;;21.62;55.23
74975;BME280;64061;50.836;19.138;2023-01-29T16:02:46;98981.72;;;21.59;54.81
74975;BME280;64061;50.836;19.138;2023-01-29T16:05:51;98967.25;;;21.53;54.59
74975;BME280;64061;50.836;19.138;2023-01-29T16:08:54;98959.28;;;21.52;54.49
74975;BME280;64061;50.836;19.138;2023-01-29T16:12:01;98963.72;;;21.48;54.16
74975;BME280;64061;50.836;19.138;2023-01-29T16:15:16;98976.06;;;21.45;54.70
74975;BME280;64061;50.836;19.138;2023-01-29T16:18:32;98968.94;;;21.44;54.11
74975;BME280;64061;50.836;19.138;2023-01-29T16:21:42;98957.97;;;21.44;53.47
74975;BME280;64061;50.836;19.138;2023-01-29T16:24:47;98959.38;;;21.42;53.47
74975;BME280;64061;50.836;19.138;2023-01-29T16:27:54;98958.03;;;21.39;52.94
74975;BME280;64061;50.836;19.138;2023-01-29T16:30:59;98953.09;;;21.36;53.14
74975;BME280;64061;50.836;19.138;2023-01-29T16:34:06;98969.84;;;21.34;52.97